Time;durP1;ratioP1;P1;durP2;ratioP2;P2;SDS_P1;SDS_P2;PMS_P1;PMS_P2;Temp;Humidity;BMP_temperature;BMP_pressure;BME280_temperature;BME280_humidity;BME280_pressure;Samples;Min_cycle;Max_cycle;Signal;HPM_P1;HPM_P2
2022/07/10 00:02:12;;;;;;;;;6.33;3.67;;;;;;;;5080153;28;45205;-71
2022/07/10 00:04:38;;;;;;;;;3.00;3.00;;;;;;;;5080514;28;45317;-71
2022/07/10 00:07:03;;;;;;;;;7.33;4.00;;;;;;;;5080044;28;45377;-71
2022/07/10 00:09:29;;;;;;;;;8.00;6.00;;;;;;;;5080104;28;45436;-70
2022/07/10 00:11:54;;;;;;;;;5.33;3.67;;;;;;;;5080255;28;45370;-70
2022/07/10 00:14:20;;;;;;;;;2.00;2.00;;;;;;;;5080457;28;45574;-70
2022/07/10 00:16:45;;;;;;;;;6.00;6.00;;;;;;;;5080145;28;46339;-70
2022/07/10 00:19:10;;;;;;;;;5.00;5.00;;;;;;;;5079814;28;45378;-70
2022/07/10 00:21:36;;;;;;;;;7.67;5.00;;;;;;;;5080230;28;45159;-70
2022/07/10 00:24:01;;;;;;;;;3.33;3.33;;;;;;;;5080194;27;45609;-70
2022/07/10 00:26:26;;;;;;;;;8.67;4.33;;;;;;;;5079791;28;46629;-70
2022/07/10 00:28:51;;;;;;;;;3.33;3.33;;;;;;;;5080013;28;45158;-70
2022/07/10 00:31:17;;;;;;;;;5.33;4.33;;;;;;;;5079925;28;45414;-70
2022/07/10 00:33:42;;;;;;;;;5.00;3.33;;;;;;;;5079910;28;45642;-70
2022/07/10 00:36:07;;;;;;;;;5.00;4.00;;;;;;;;5079003;28;46107;-71
2022/07/10 00:38:33;;;;;;;;;5.33;5.00;;;;;;;;5079644;28;45430;-71
2022/07/10 00:40:58;;;;;;;;;5.00;4.00;;;;;;;;5079709;27;45363;-70
2022/07/10 00:43:23;;;;;;;;;6.00;4.67;;;;;;;;5079893;27;45291;-70
2022/07/10 00:45:49;;;;;;;;;4.33;3.67;;;;;;;;5079641;28;46496;-70
2022/07/10 00:48:15;;;;;;;;;5.00;4.67;;;;;;;;5079710;28;45311;-70
2022/07/10 00:50:41;;;;;;;;;3.33;3.33;;;;;;;;5079847;28;45438;-70
2022/07/10 00:53:07;;;;;;;;;8.33;6.00;;;;;;;;5079532;28;45505;-70
2022/07/10 00:55:34;;;;;;;;;8.00;7.00;;;;;;;;5079429;28;46661;-71
2022/07/10 00:57:59;;;;;;;;;4.33;4.33;;;;;;;;5079657;28;45315;-71
2022/07/10 01:00:25;;;;;;;;;5.67;4.00;;;;;;;;5078572;28;45230;-70
2022/07/10 01:02:51;;;;;;;;;10.33;6.00;;;;;;;;5079427;28;45487;-70
2022/07/10 01:05:17;;;;;;;;;7.00;5.00;;;;;;;;5079507;28;46210;-70
2022/07/10 01:07:42;;;;;;;;;4.67;4.67;;;;;;;;5079072;28;45324;-70
2022/07/10 01:10:07;;;;;;;;;7.67;6.00;;;;;;;;5079445;28;45431;-70
2022/07/10 01:12:33;;;;;;;;;5.00;5.00;;;;;;;;5079672;28;45261;-70
2022/07/10 01:14:58;;;;;;;;;6.67;5.00;;;;;;;;5079104;28;46597;-70
2022/07/10 01:17:24;;;;;;;;;5.00;4.00;;;;;;;;5079096;28;45358;-70
2022/07/10 01:19:49;;;;;;;;;5.00;5.00;;;;;;;;5079178;28;45447;-70
2022/07/10 01:22:15;;;;;;;;;6.00;5.00;;;;;;;;5079319;28;45309;-70
2022/07/10 01:24:40;;;;;;;;;9.00;5.00;;;;;;;;5079051;28;46286;-70
2022/07/10 01:27:05;;;;;;;;;7.67;5.00;;;;;;;;5079021;28;45505;-70
2022/07/10 01:29:31;;;;;;;;;8.00;6.00;;;;;;;;5078880;28;45345;-70
2022/07/10 01:31:59;;;;;;;;;5.33;5.33;;;;;;;;5079230;28;45484;-70
2022/07/10 01:34:25;;;;;;;;;6.33;5.00;;;;;;;;5078800;28;46434;-70
2022/07/10 01:36:50;;;;;;;;;7.00;6.00;;;;;;;;5078891;28;45318;-70
2022/07/10 01:39:15;;;;;;;;;8.33;7.00;;;;;;;;5078937;28;45362;-70
2022/07/10 01:41:40;;;;;;;;;5.67;5.33;;;;;;;;5079039;28;45428;-70
2022/07/10 01:44:06;;;;;;;;;5.33;5.33;;;;;;;;5078390;28;46652;-70
2022/07/10 01:46:31;;;;;;;;;6.33;4.00;;;;;;;;5078868;28;45478;-70
2022/07/10 01:48:56;;;;;;;;;4.67;4.67;;;;;;;;5079012;28;45375;-70
2022/07/10 01:51:22;;;;;;;;;6.67;6.00;;;;;;;;5079000;28;45399;-70
2022/07/10 01:53:47;;;;;;;;;7.00;5.67;;;;;;;;5078520;28;46499;-71
2022/07/10 01:56:13;;;;;;;;;4.67;4.67;;;;;;;;5078594;28;45443;-70
2022/07/10 01:58:39;;;;;;;;;5.00;4.33;;;;;;;;5078859;28;45362;-70
2022/07/10 02:01:04;;;;;;;;;7.33;6.00;;;;;;;;5078895;28;45350;-70
2022/07/10 02:06:13;;;;;;;;;9.33;6.00;;;;;;;;5078256;28;45414;-70
2022/07/10 02:08:38;;;;;;;;;9.33;7.67;;;;;;;;5078368;28;45418;-72
2022/07/10 02:11:04;;;;;;;;;11.67;9.67;;;;;;;;5078661;28;45430;-72
2022/07/10 02:13:29;;;;;;;;;13.33;7.00;;;;;;;;5078072;28;46733;-72
2022/07/10 02:15:54;;;;;;;;;8.00;8.00;;;;;;;;5078430;28;45354;-70
2022/07/10 02:18:20;;;;;;;;;13.00;10.00;;;;;;;;5078379;28;45861;-70
2022/07/10 02:20:45;;;;;;;;;11.33;8.67;;;;;;;;5078531;28;45592;-70
2022/07/10 02:23:10;;;;;;;;;12.67;8.67;;;;;;;;5078189;28;46580;-70
2022/07/10 02:25:36;;;;;;;;;11.00;8.67;;;;;;;;5077849;28;45232;-70
2022/07/10 02:28:01;;;;;;;;;9.33;8.33;;;;;;;;5078432;28;45277;-71
2022/07/10 02:30:26;;;;;;;;;8.00;5.00;;;;;;;;5078355;28;45257;-71
2022/07/10 02:32:51;;;;;;;;;9.33;6.00;;;;;;;;5078097;28;45312;-71
2022/07/10 02:35:17;;;;;;;;;6.00;6.00;;;;;;;;5078130;28;45444;-70
2022/07/10 02:37:42;;;;;;;;;7.00;6.00;;;;;;;;5078186;28;45425;-71
2022/07/10 02:40:08;;;;;;;;;7.67;7.00;;;;;;;;5078177;28;45390;-71
2022/07/10 02:42:33;;;;;;;;;6.00;6.00;;;;;;;;5077682;28;46836;-71
2022/07/10 02:44:58;;;;;;;;;6.00;5.33;;;;;;;;5078055;28;45414;-72
2022/07/10 02:47:23;;;;;;;;;6.00;5.00;;;;;;;;5077887;28;45252;-71
2022/07/10 02:49:49;;;;;;;;;9.33;8.00;;;;;;;;5078149;28;45275;-72
2022/07/10 02:52:14;;;;;;;;;7.00;7.00;;;;;;;;5077602;28;46426;-72
2022/07/10 02:54:39;;;;;;;;;6.33;6.33;;;;;;;;5077512;28;45498;-71
2022/07/10 02:57:04;;;;;;;;;10.00;6.00;;;;;;;;5077980;28;45238;-72
2022/07/10 02:59:30;;;;;;;;;10.67;7.00;;;;;;;;5078045;28;45475;-74
2022/07/10 03:01:55;;;;;;;;;13.00;9.67;;;;;;;;5077177;28;45395;-74
2022/07/10 03:04:20;;;;;;;;;7.67;6.00;;;;;;;;5077603;28;45431;-72
2022/07/10 03:06:46;;;;;;;;;8.33;6.00;;;;;;;;5077614;28;45371;-72
2022/07/10 03:09:11;;;;;;;;;9.00;6.33;;;;;;;;5077810;28;45369;-70
2022/07/10 03:11:36;;;;;;;;;10.00;8.67;;;;;;;;5077502;28;45290;-70
2022/07/10 03:14:01;;;;;;;;;4.67;4.67;;;;;;;;5077691;28;45384;-70
2022/07/10 03:16:26;;;;;;;;;8.67;6.67;;;;;;;;5077438;28;45238;-70
2022/07/10 03:18:52;;;;;;;;;8.33;6.00;;;;;;;;5077658;28;45198;-71
2022/07/10 03:21:17;;;;;;;;;7.00;7.00;;;;;;;;5077663;28;45488;-70
2022/07/10 03:23:42;;;;;;;;;8.00;8.00;;;;;;;;5081865;28;45456;-70
2022/07/10 03:26:07;;;;;;;;;7.00;6.33;;;;;;;;5084309;28;45454;-70
2022/07/10 03:28:33;;;;;;;;;8.00;7.00;;;;;;;;5084216;28;45480;-70
2022/07/10 03:30:58;;;;;;;;;13.00;11.00;;;;;;;;5083576;28;46644;-70
2022/07/10 03:33:23;;;;;;;;;8.67;8.67;;;;;;;;5084229;27;45334;-70
2022/07/10 03:35:48;;;;;;;;;7.33;7.33;;;;;;;;5084209;28;45361;-70
2022/07/10 03:38:14;;;;;;;;;12.00;10.00;;;;;;;;5084272;28;45283;-71
2022/07/10 03:40:39;;;;;;;;;7.00;7.00;;;;;;;;5083690;28;45644;-70
2022/07/10 03:43:04;;;;;;;;;8.67;8.33;;;;;;;;5083619;28;45420;-71
2022/07/10 03:45:29;;;;;;;;;8.33;8.00;;;;;;;;5084245;28;45341;-70
2022/07/10 03:47:55;;;;;;;;;10.33;9.00;;;;;;;;5084022;27;45282;-70
2022/07/10 03:50:20;;;;;;;;;13.00;9.33;;;;;;;;5083776;28;47261;-70
2022/07/10 03:52:46;;;;;;;;;11.33;9.33;;;;;;;;5083578;28;45382;-70
2022/07/10 03:55:11;;;;;;;;;9.00;9.00;;;;;;;;5083507;28;45870;-70
2022/07/10 03:57:56;;;;;;;;;7.33;7.33;;;;;;;;5084347;28;45363;-70
2022/07/10 04:00:22;;;;;;;;;11.33;9.33;;;;;;;;5083443;28;47189;-69
2022/07/10 04:02:49;;;;;;;;;7.00;7.00;;;;;;;;5083383;28;45450;-69
2022/07/10 04:05:14;;;;;;;;;12.67;9.33;;;;;;;;5083619;28;45158;-70
2022/07/10 04:07:39;;;;;;;;;12.00;11.33;;;;;;;;5083615;28;45584;-70
2022/07/10 04:10:05;;;;;;;;;11.33;10.00;;;;;;;;5084112;27;46392;-70
2022/07/10 04:12:31;;;;;;;;;9.50;8.50;;;;;;;;5083511;28;45411;-70
2022/07/10 04:14:57;;;;;;;;;11.00;11.00;;;;;;;;5083716;28;45383;-70
2022/07/10 04:17:22;;;;;;;;;12.33;10.00;;;;;;;;5083855;28;45398;-70
2022/07/10 04:19:47;;;;;;;;;26.67;24.33;;;;;;;;5083122;28;47235;-69
2022/07/10 04:22:13;;;;;;;;;12.67;10.67;;;;;;;;5083739;28;45418;-70
2022/07/10 04:24:38;;;;;;;;;10.33;10.00;;;;;;;;5083406;28;45317;-70
2022/07/10 04:27:03;;;;;;;;;8.00;8.00;;;;;;;;5083438;28;45572;-70
2022/07/10 04:29:29;;;;;;;;;11.00;11.00;;;;;;;;5083123;28;46460;-70
2022/07/10 04:31:54;;;;;;;;;9.67;8.33;;;;;;;;5083048;28;45384;-70
2022/07/10 04:34:19;;;;;;;;;10.67;7.00;;;;;;;;5080986;28;45309;-70
2022/07/10 04:36:44;;;;;;;;;12.00;10.33;;;;;;;;5080052;28;45561;-70
2022/07/10 04:39:10;;;;;;;;;10.33;10.00;;;;;;;;5079843;28;45595;-70
2022/07/10 04:41:35;;;;;;;;;11.67;6.67;;;;;;;;5061460;28;45317;-70
2022/07/10 04:44:00;;;;;;;;;11.00;11.00;;;;;;;;5079720;28;45429;-70
2022/07/10 04:46:26;;;;;;;;;14.33;10.67;;;;;;;;5079880;28;45328;-70
2022/07/10 04:48:51;;;;;;;;;9.67;9.67;;;;;;;;5078311;28;46539;-70
2022/07/10 04:51:17;;;;;;;;;8.67;8.67;;;;;;;;5079706;28;45272;-70
2022/07/10 04:53:42;;;;;;;;;11.00;11.00;;;;;;;;5079849;28;45337;-71
2022/07/10 04:56:07;;;;;;;;;10.00;9.33;;;;;;;;5079393;28;45523;-70
2022/07/10 04:58:33;;;;;;;;;11.33;9.33;;;;;;;;5079693;28;45424;-71
2022/07/10 05:00:58;;;;;;;;;12.67;11.00;;;;;;;;5079283;28;45269;-70
2022/07/10 05:03:23;;;;;;;;;13.67;9.00;;;;;;;;5077129;27;45244;-71
2022/07/10 05:05:48;;;;;;;;;14.33;11.33;;;;;;;;5079730;28;45306;-71
2022/07/10 05:08:14;;;;;;;;;9.33;8.67;;;;;;;;5060975;28;46393;-70
2022/07/10 05:10:39;;;;;;;;;9.67;9.00;;;;;;;;5079349;28;45308;-71
2022/07/10 05:13:05;;;;;;;;;10.33;9.33;;;;;;;;5078371;28;45576;-71
2022/07/10 05:15:30;;;;;;;;;12.67;11.33;;;;;;;;5079073;28;45387;-73
2022/07/10 05:17:55;;;;;;;;;6.00;6.00;;;;;;;;5079049;28;47438;-71
2022/07/10 05:20:20;;;;;;;;;9.67;8.33;;;;;;;;5079123;28;45179;-72
2022/07/10 05:22:46;;;;;;;;;12.67;8.67;;;;;;;;5079332;28;45291;-72
2022/07/10 05:25:11;;;;;;;;;10.67;8.00;;;;;;;;5079203;28;45626;-71
2022/07/10 05:27:36;;;;;;;;;8.00;6.67;;;;;;;;5078911;28;47058;-71
2022/07/10 05:30:01;;;;;;;;;11.00;9.00;;;;;;;;5078970;28;45450;-72
2022/07/10 05:32:27;;;;;;;;;9.67;7.67;;;;;;;;5078940;28;45311;-69
2022/07/10 05:34:52;;;;;;;;;8.00;8.00;;;;;;;;5079502;28;45506;-69
2022/07/10 05:37:17;;;;;;;;;9.67;8.33;;;;;;;;5078852;28;46456;-67
2022/07/10 05:39:43;;;;;;;;;9.67;7.67;;;;;;;;5079088;28;45387;-69
2022/07/10 05:42:08;;;;;;;;;6.00;4.33;;;;;;;;5078702;28;45488;-69
2022/07/10 05:44:33;;;;;;;;;7.67;7.00;;;;;;;;5079050;28;45375;-69
2022/07/10 05:46:59;;;;;;;;;6.00;6.00;;;;;;;;5078305;28;46389;-71
2022/07/10 05:49:24;;;;;;;;;5.00;5.00;;;;;;;;5078953;28;45478;-70
2022/07/10 05:51:50;;;;;;;;;8.67;8.33;;;;;;;;5079180;28;45287;-70
2022/07/10 05:54:15;;;;;;;;;8.67;7.67;;;;;;;;5079129;28;45304;-75
2022/07/10 05:56:40;;;;;;;;;7.00;6.00;;;;;;;;5078390;28;45588;-68
2022/07/10 05:59:05;;;;;;;;;4.00;4.00;;;;;;;;5078631;28;45311;-68
2022/07/10 06:01:31;;;;;;;;;6.33;3.67;;;;;;;;5078580;28;45362;-68
2022/07/10 06:03:56;;;;;;;;;4.00;4.00;;;;;;;;5079029;28;45281;-69
2022/07/10 06:06:21;;;;;;;;;7.00;5.33;;;;;;;;5078319;28;46238;-70
2022/07/10 06:08:46;;;;;;;;;5.00;5.00;;;;;;;;5078262;28;45339;-70
2022/07/10 06:11:12;;;;;;;;;6.00;4.00;;;;;;;;5078492;28;45381;-69
2022/07/10 06:13:38;;;;;;;;;5.33;4.00;;;;;;;;5078440;27;45329;-70
2022/07/10 06:16:04;;;;;;;;;4.33;4.33;;;;;;;;5078409;28;45327;-68
2022/07/10 06:18:29;;;;;;;;;5.00;4.33;;;;;;;;5078350;28;45298;-68
2022/07/10 06:20:55;;;;;;;;;4.00;4.00;;;;;;;;5078050;28;45774;-70
2022/07/10 06:23:20;;;;;;;;;2.00;2.00;;;;;;;;5078787;28;45184;-68
2022/07/10 06:25:45;;;;;;;;;3.00;3.00;;;;;;;;5077854;28;45675;-69
2022/07/10 06:28:10;;;;;;;;;3.00;2.00;;;;;;;;5078201;28;45315;-68
2022/07/10 06:30:36;;;;;;;;;1.67;1.67;;;;;;;;5078058;28;45509;-69
2022/07/10 06:33:01;;;;;;;;;2.67;2.67;;;;;;;;5078198;28;45432;-69
2022/07/10 06:35:26;;;;;;;;;3.67;2.67;;;;;;;;5078161;28;45564;-68
2022/07/10 06:37:51;;;;;;;;;5.00;1.67;;;;;;;;5078081;28;45170;-69
2022/07/10 06:40:17;;;;;;;;;2.00;2.00;;;;;;;;5078382;28;45293;-69
2022/07/10 06:42:42;;;;;;;;;2.33;2.33;;;;;;;;5077997;28;45454;-69
2022/07/10 06:45:07;;;;;;;;;3.00;1.00;;;;;;;;5077468;28;47026;-68
2022/07/10 06:50:17;;;;;;;;;2.00;2.00;;;;;;;;5077885;28;45390;-67
2022/07/10 06:52:42;;;;;;;;;2.00;2.00;;;;;;;;5078242;28;45466;-68
2022/07/10 06:55:08;;;;;;;;;2.67;1.67;;;;;;;;5077775;28;46554;-68
2022/07/10 06:57:33;;;;;;;;;3.00;2.00;;;;;;;;5076254;28;45397;-67
2022/07/10 06:59:59;;;;;;;;;3.00;2.67;;;;;;;;5077999;28;45301;-68
2022/07/10 07:02:24;;;;;;;;;4.00;2.33;;;;;;;;5077878;28;45522;-68
2022/07/10 07:04:49;;;;;;;;;3.00;1.00;;;;;;;;5077458;28;45604;-69
2022/07/10 07:07:15;;;;;;;;;4.33;2.33;;;;;;;;5059177;28;45352;-70
2022/07/10 07:09:41;;;;;;;;;5.00;2.00;;;;;;;;5077407;28;45323;-70
2022/07/10 07:12:07;;;;;;;;;3.00;3.00;;;;;;;;5077671;27;45446;-71
2022/07/10 07:14:32;;;;;;;;;2.00;2.00;;;;;;;;5077350;28;46311;-71
2022/07/10 07:17:00;;;;;;;;;2.67;2.67;;;;;;;;5077419;28;45278;-70
2022/07/10 07:19:31;;;;;;;;;2.67;2.67;;;;;;;;5077302;28;45204;-70
2022/07/10 07:24:43;;;;;;;;;6.00;3.67;;;;;;;;5077179;28;45842;-71
2022/07/10 07:27:08;;;;;;;;;8.00;6.00;;;;;;;;5076913;28;45554;-72
2022/07/10 07:29:33;;;;;;;;;3.00;3.00;;;;;;;;5077511;28;45314;-72
2022/07/10 07:31:59;;;;;;;;;2.00;2.00;;;;;;;;5077394;27;45445;-70
2022/07/10 07:34:24;;;;;;;;;2.33;2.00;;;;;;;;5077192;28;45371;-71
2022/07/10 07:36:49;;;;;;;;;5.00;3.00;;;;;;;;5077387;28;45315;-71
2022/07/10 07:39:14;;;;;;;;;2.33;2.33;;;;;;;;5077646;28;45296;-69
2022/07/10 07:41:40;;;;;;;;;3.67;1.00;;;;;;;;5077472;28;45234;-68
2022/07/10 07:44:05;;;;;;;;;3.00;1.67;;;;;;;;5076881;28;47245;-71
2022/07/10 07:46:30;;;;;;;;;3.33;3.33;;;;;;;;5077037;28;45207;-71
2022/07/10 07:48:57;;;;;;;;;2.00;1.00;;;;;;;;5077246;28;45402;-72
2022/07/10 07:51:22;;;;;;;;;4.00;2.00;;;;;;;;5077642;28;45405;-72
2022/07/10 07:53:47;;;;;;;;;2.00;2.00;;;;;;;;5076743;28;46101;-73
2022/07/10 07:56:12;;;;;;;;;2.00;2.00;;;;;;;;5076971;28;45181;-72
2022/07/10 07:58:38;;;;;;;;;2.00;2.00;;;;;;;;5077369;28;45410;-71
2022/07/10 08:01:03;;;;;;;;;5.00;2.00;;;;;;;;5077170;28;45326;-72
2022/07/10 08:03:28;;;;;;;;;3.00;3.00;;;;;;;;5077262;28;45557;-71
2022/07/10 08:05:53;;;;;;;;;2.00;2.00;;;;;;;;5076986;28;45319;-71
2022/07/10 08:08:19;;;;;;;;;3.00;2.00;;;;;;;;5076970;28;45449;-72
2022/07/10 08:10:44;;;;;;;;;2.33;2.33;;;;;;;;5080737;28;45394;-71
2022/07/10 08:13:09;;;;;;;;;1.00;1.00;;;;;;;;5080125;28;46307;-71
2022/07/10 08:15:34;;;;;;;;;2.00;2.00;;;;;;;;5080563;28;45401;-71
2022/07/10 08:18:00;;;;;;;;;2.33;1.33;;;;;;;;5080595;28;45402;-70
2022/07/10 08:20:26;;;;;;;;;2.00;2.00;;;;;;;;5080545;28;45384;-71
2022/07/10 08:22:53;;;;;;;;;3.00;2.00;;;;;;;;5080332;28;45323;-71
2022/07/10 08:25:19;;;;;;;;;1.33;1.33;;;;;;;;5080068;28;45426;-71
2022/07/10 08:27:44;;;;;;;;;3.67;2.00;;;;;;;;5080138;28;45271;-70
2022/07/10 08:30:10;;;;;;;;;2.00;2.00;;;;;;;;5080404;28;45296;-71
2022/07/10 08:32:36;;;;;;;;;2.00;2.00;;;;;;;;5079811;28;47027;-70
2022/07/10 08:35:02;;;;;;;;;4.00;2.33;;;;;;;;5080238;28;45273;-70
2022/07/10 08:37:27;;;;;;;;;4.00;2.00;;;;;;;;5079912;28;45302;-70
2022/07/10 08:39:52;;;;;;;;;3.00;2.33;;;;;;;;5080193;28;45434;-70
2022/07/10 08:42:18;;;;;;;;;2.00;2.00;;;;;;;;5079783;28;46515;-70
2022/07/10 08:44:44;;;;;;;;;2.00;2.00;;;;;;;;5079736;28;45332;-70
2022/07/10 08:47:11;;;;;;;;;1.00;1.00;;;;;;;;5080129;28;45457;-70
2022/07/10 08:49:36;;;;;;;;;2.67;2.67;;;;;;;;5079913;27;45422;-70
2022/07/10 08:52:05;;;;;;;;;2.00;2.00;;;;;;;;5079768;28;46068;-70
2022/07/10 08:54:32;;;;;;;;;2.00;2.00;;;;;;;;5078388;28;45419;-70
2022/07/10 08:56:57;;;;;;;;;7.00;3.00;;;;;;;;5079271;28;45474;-70
2022/07/10 08:59:23;;;;;;;;;1.00;1.00;;;;;;;;5080022;28;45545;-69
2022/07/10 09:01:49;;;;;;;;;2.00;2.00;;;;;;;;5079402;28;46432;-71
2022/07/10 09:04:21;;;;;;;;;3.00;1.00;;;;;;;;5079667;28;45398;-71
2022/07/10 09:06:46;;;;;;;;;1.67;1.67;;;;;;;;5079727;28;45267;-70
2022/07/10 09:09:11;;;;;;;;;1.67;1.00;;;;;;;;5079768;28;45261;-71
2022/07/10 09:11:40;;;;;;;;;5.00;2.00;;;;;;;;5079352;28;45586;-71
2022/07/10 09:14:08;;;;;;;;;2.00;2.00;;;;;;;;5079211;28;45457;-71
2022/07/10 09:16:34;;;;;;;;;2.67;2.67;;;;;;;;5079633;28;45303;-69
2022/07/10 09:19:15;;;;;;;;;2.67;2.67;;;;;;;;5079839;28;45430;-69
2022/07/10 09:21:40;;;;;;;;;3.33;2.00;;;;;;;;5077355;28;45470;-71
2022/07/10 09:24:07;;;;;;;;;3.00;3.00;;;;;;;;5079345;28;45383;-71
2022/07/10 09:26:33;;;;;;;;;4.67;4.67;;;;;;;;5079575;28;45341;-70
2022/07/10 09:29:24;;;;;;;;;4.33;3.00;;;;;;;;5079398;28;45452;-71
2022/07/10 09:31:53;;;;;;;;;4.67;3.00;;;;;;;;5074859;28;45560;-71
2022/07/10 09:34:34;;;;;;;;;3.00;3.00;;;;;;;;5078705;28;45586;-67
2022/07/10 09:36:59;;;;;;;;;2.67;2.67;;;;;;;;5079185;28;45479;-67
2022/07/10 09:39:24;;;;;;;;;2.33;2.00;;;;;;;;5079575;28;45360;-68
2022/07/10 09:41:49;;;;;;;;;3.00;2.33;;;;;;;;5078902;28;46355;-68
2022/07/10 09:44:15;;;;;;;;;2.33;2.33;;;;;;;;5079039;28;45476;-67
2022/07/10 09:46:43;;;;;;;;;2.33;2.33;;;;;;;;5078839;28;45483;-68
2022/07/10 09:49:09;;;;;;;;;5.00;3.00;;;;;;;;5078871;28;45419;-71
2022/07/10 09:51:37;;;;;;;;;4.00;3.33;;;;;;;;5078053;28;45901;-68
2022/07/10 09:54:03;;;;;;;;;3.33;2.33;;;;;;;;5078829;28;45157;-69
2022/07/10 09:56:51;;;;;;;;;3.67;3.33;;;;;;;;5079059;28;45372;-71
2022/07/10 09:59:17;;;;;;;;;2.33;2.33;;;;;;;;5079035;28;45412;-71
2022/07/10 10:01:46;;;;;;;;;1.67;1.67;;;;;;;;5078361;28;46569;-72
2022/07/10 10:04:13;;;;;;;;;1.67;1.67;;;;;;;;5078691;28;45356;-69
2022/07/10 10:06:39;;;;;;;;;4.00;2.00;;;;;;;;5078901;28;45355;-70
2022/07/10 10:09:07;;;;;;;;;1.67;1.67;;;;;;;;5078556;28;45483;-71
2022/07/10 10:11:35;;;;;;;;;1.33;1.00;;;;;;;;5078368;28;46727;-71
2022/07/10 10:14:00;;;;;;;;;1.67;1.67;;;;;;;;5078564;28;45263;-70
2022/07/10 10:16:27;;;;;;;;;1.00;0.67;;;;;;;;5078580;28;45264;-71
2022/07/10 10:21:36;;;;;;;;;2.50;2.50;;;;;;;;5078168;28;45716;-68
2022/07/10 10:24:02;;;;;;;;;1.00;1.00;;;;;;;;5078086;28;45289;-69
2022/07/10 10:26:28;;;;;;;;;2.75;1.00;;;;;;;;5078320;28;45282;-71
2022/07/10 10:28:54;;;;;;;;;1.50;0.50;;;;;;;;5078531;28;45570;-70
2022/07/10 10:31:20;;;;;;;;;2.25;1.50;;;;;;;;5078050;28;46160;-71
2022/07/10 10:33:47;;;;;;;;;1.25;1.25;;;;;;;;5076896;28;45451;-71
2022/07/10 10:36:14;;;;;;;;;0.00;0.00;;;;;;;;5077622;28;45427;-71
2022/07/10 10:38:48;;;;;;;;;1.25;1.25;;;;;;;;5078341;28;45436;-71
2022/07/10 10:41:32;;;;;;;;;1.50;1.50;;;;;;;;5078204;28;45692;-70
2022/07/10 10:44:06;;;;;;;;;1.00;1.00;;;;;;;;5077900;28;45408;-71
2022/07/10 10:46:31;;;;;;;;;1.25;1.25;;;;;;;;5077723;28;45383;-69
2022/07/10 10:49:07;;;;;;;;;1.00;1.00;;;;;;;;5078060;28;45483;-70
2022/07/10 10:51:51;;;;;;;;;3.75;2.50;;;;;;;;5078072;28;45587;-70
2022/07/10 10:54:16;;;;;;;;;6.00;5.00;;;;;;;;5078111;28;45317;-70
2022/07/10 10:56:41;;;;;;;;;4.00;2.00;;;;;;;;5077887;28;45310;-69
2022/07/10 10:59:07;;;;;;;;;3.00;3.00;;;;;;;;5077723;28;45281;-69
2022/07/10 11:01:32;;;;;;;;;2.00;2.00;;;;;;;;5077561;28;46075;-70
2022/07/10 11:04:03;;;;;;;;;0.50;0.50;;;;;;;;5077805;28;45475;-70
2022/07/10 11:06:41;;;;;;;;;1.00;1.00;;;;;;;;5077937;28;45304;-71
2022/07/10 11:09:22;;;;;;;;;2.00;2.00;;;;;;;;5077914;28;45417;-71
2022/07/10 11:12:00;;;;;;;;;0.50;0.50;;;;;;;;5077317;28;46942;-70
2022/07/10 11:14:28;;;;;;;;;3.50;1.00;;;;;;;;5077339;28;45315;-69
2022/07/10 11:16:54;;;;;;;;;0.50;0.50;;;;;;;;5077731;28;45344;-69
2022/07/10 11:19:20;;;;;;;;;1.00;1.00;;;;;;;;5077565;28;45229;-69
2022/07/10 11:21:47;;;;;;;;;3.25;3.25;;;;;;;;5077121;28;47364;-70
2022/07/10 11:24:24;;;;;;;;;3.75;3.75;;;;;;;;5077488;28;45253;-70
2022/07/10 11:26:56;;;;;;;;;2.33;1.00;;;;;;;;5077519;28;45414;-70
2022/07/10 11:29:21;;;;;;;;;1.67;1.67;;;;;;;;5077626;28;45427;-70
2022/07/10 11:31:53;;;;;;;;;4.33;4.00;;;;;;;;5077210;28;46185;-69
2022/07/10 11:34:18;;;;;;;;;2.00;2.00;;;;;;;;5077333;28;45427;-70
2022/07/10 11:36:43;;;;;;;;;2.00;2.00;;;;;;;;5077351;28;45250;-69
2022/07/10 11:39:08;;;;;;;;;3.67;3.67;;;;;;;;5077798;28;45278;-68
2022/07/10 11:41:34;;;;;;;;;2.67;2.67;;;;;;;;5076785;28;46088;-68
2022/07/10 11:44:02;;;;;;;;;2.00;2.00;;;;;;;;5078050;28;45320;-68
2022/07/10 11:46:32;;;;;;;;;1.67;1.67;;;;;;;;5081036;28;45452;-69
2022/07/10 11:48:58;;;;;;;;;1.67;1.00;;;;;;;;5080957;28;45232;-69
2022/07/10 11:51:26;;;;;;;;;4.00;2.67;;;;;;;;5080637;28;47515;-70
2022/07/10 11:53:57;;;;;;;;;2.00;2.00;;;;;;;;5079658;28;45294;-69
2022/07/10 11:56:23;;;;;;;;;3.67;2.67;;;;;;;;5080797;28;45362;-70
2022/07/10 11:58:55;;;;;;;;;4.00;3.00;;;;;;;;5080780;28;45411;-74
2022/07/10 12:01:20;;;;;;;;;4.67;4.67;;;;;;;;5080512;28;45594;-71
2022/07/10 12:03:56;;;;;;;;;4.33;4.33;;;;;;;;5080287;28;45401;-70
2022/07/10 12:06:22;;;;;;;;;3.00;3.00;;;;;;;;5080727;28;45398;-71
2022/07/10 12:08:47;;;;;;;;;1.33;1.33;;;;;;;;5080895;28;45412;-71
2022/07/10 12:11:14;;;;;;;;;3.67;3.00;;;;;;;;5080045;28;46428;-71
2022/07/10 12:13:39;;;;;;;;;3.00;3.00;;;;;;;;5080529;28;45302;-68
2022/07/10 12:16:04;;;;;;;;;3.00;2.00;;;;;;;;5080592;28;45232;-70
2022/07/10 12:18:32;;;;;;;;;3.33;2.00;;;;;;;;5080656;28;45434;-71
2022/07/10 12:20:59;;;;;;;;;2.33;2.00;;;;;;;;5080308;28;47233;-71
2022/07/10 12:23:24;;;;;;;;;2.00;2.00;;;;;;;;5080101;28;45619;-71
2022/07/10 12:25:49;;;;;;;;;7.33;7.00;;;;;;;;5080626;28;45749;-71
2022/07/10 12:28:15;;;;;;;;;3.67;1.67;;;;;;;;5080272;28;45554;-71
2022/07/10 12:30:50;;;;;;;;;2.00;2.00;;;;;;;;5079765;28;45336;-71
2022/07/10 12:33:17;;;;;;;;;4.67;4.67;;;;;;;;5080255;28;45404;-72
2022/07/10 12:36:04;;;;;;;;;8.33;7.00;;;;;;;;5079745;28;45527;-71
2022/07/10 12:38:33;;;;;;;;;3.00;2.33;;;;;;;;5080344;28;45896;-70
2022/07/10 12:41:08;;;;;;;;;2.67;2.67;;;;;;;;5079704;28;47107;-71
2022/07/10 12:43:33;;;;;;;;;3.00;2.00;;;;;;;;5079963;28;45221;-71
2022/07/10 12:46:28;;;;;;;;;4.33;3.00;;;;;;;;5079497;28;45231;-70
2022/07/10 12:49:03;;;;;;;;;0.00;0.00;;;;;;;;5017556;28;45287;-67
2022/07/10 12:51:30;;;;;;;;;2.67;1.33;;;;;;;;5017203;28;46434;-71
2022/07/10 12:53:55;;;;;;;;;3.00;1.67;;;;;;;;5016856;28;45377;-71
2022/07/10 12:56:29;;;;;;;;;2.67;2.00;;;;;;;;5016232;28;45353;-71
2022/07/10 12:58:55;;;;;;;;;3.00;3.00;;;;;;;;5016915;28;45615;-69
2022/07/10 13:01:20;;;;;;;;;2.00;2.00;;;;;;;;5016887;28;45521;-72
2022/07/10 13:03:46;;;;;;;;;2.67;2.00;;;;;;;;5000275;28;45411;-71
2022/07/10 13:06:27;;;;;;;;;2.00;2.00;;;;;;;;5017156;28;45424;-70
2022/07/10 13:08:52;;;;;;;;;2.00;1.00;;;;;;;;5017230;28;45455;-70
2022/07/10 13:11:17;;;;;;;;;2.67;2.67;;;;;;;;5016799;28;45508;-71
2022/07/10 13:13:43;;;;;;;;;2.00;1.33;;;;;;;;5016934;28;45480;-70
2022/07/10 13:16:08;;;;;;;;;3.33;2.00;;;;;;;;5016962;28;45475;-68
2022/07/10 13:18:33;;;;;;;;;1.00;1.00;;;;;;;;5017212;28;45359;-71
2022/07/10 13:20:59;;;;;;;;;1.33;1.33;;;;;;;;5017240;28;46253;-70
2022/07/10 13:23:25;;;;;;;;;1.00;1.00;;;;;;;;5017382;28;45378;-69
2022/07/10 13:25:54;;;;;;;;;3.00;2.00;;;;;;;;5048414;28;45337;-70
2022/07/10 13:28:19;;;;;;;;;3.00;1.33;;;;;;;;5059806;28;45787;-71
2022/07/10 13:30:44;;;;;;;;;2.00;2.00;;;;;;;;5059134;28;46275;-71
2022/07/10 13:33:10;;;;;;;;;3.00;3.00;;;;;;;;5060348;28;45783;-71
2022/07/10 13:35:35;;;;;;;;;2.00;2.00;;;;;;;;5059583;28;45151;-71
2022/07/10 13:38:02;;;;;;;;;2.00;2.00;;;;;;;;5060169;28;45535;-71
2022/07/10 13:40:28;;;;;;;;;7.67;5.33;;;;;;;;5060528;28;46755;-71
2022/07/10 13:42:53;;;;;;;;;2.33;2.00;;;;;;;;5059746;28;45259;-71
2022/07/10 13:45:19;;;;;;;;;1.33;1.33;;;;;;;;5059677;28;45356;-71
2022/07/10 13:47:44;;;;;;;;;4.00;4.00;;;;;;;;5059343;28;45481;-72
2022/07/10 13:50:09;;;;;;;;;2.67;2.00;;;;;;;;5059382;28;45460;-72
2022/07/10 13:52:34;;;;;;;;;5.00;2.00;;;;;;;;5059714;28;45418;-71
2022/07/10 13:55:00;;;;;;;;;3.00;1.33;;;;;;;;5059168;28;45400;-71
2022/07/10 13:57:26;;;;;;;;;2.00;2.00;;;;;;;;5059737;28;45379;-71
2022/07/10 13:59:52;;;;;;;;;2.33;1.00;;;;;;;;5058592;28;45359;-71
2022/07/10 14:02:17;;;;;;;;;1.67;1.67;;;;;;;;5065571;28;45309;-70
2022/07/10 14:04:43;;;;;;;;;1.00;1.00;;;;;;;;5079619;28;45411;-71
2022/07/10 14:07:08;;;;;;;;;1.00;1.00;;;;;;;;5078988;27;45388;-71
2022/07/10 14:09:33;;;;;;;;;1.33;1.33;;;;;;;;5078971;28;45410;-71
2022/07/10 14:11:58;;;;;;;;;1.00;1.00;;;;;;;;5078610;28;45827;-72
2022/07/10 14:14:24;;;;;;;;;1.00;1.00;;;;;;;;5078966;28;45383;-72
2022/07/10 14:16:49;;;;;;;;;2.00;1.00;;;;;;;;5078995;27;45368;-73
2022/07/10 14:19:15;;;;;;;;;4.00;3.00;;;;;;;;5078529;28;46572;-73
2022/07/10 14:21:40;;;;;;;;;1.00;1.00;;;;;;;;5078538;27;45422;-75
2022/07/10 14:24:06;;;;;;;;;3.67;3.00;;;;;;;;5078529;28;45463;-72
2022/07/10 14:26:33;;;;;;;;;1.00;1.00;;;;;;;;5078257;27;45427;-71
2022/07/10 14:29:00;;;;;;;;;1.00;1.00;;;;;;;;5078603;28;46410;-72
2022/07/10 14:31:25;;;;;;;;;2.00;2.00;;;;;;;;5078099;28;45465;-72
2022/07/10 14:33:50;;;;;;;;;2.00;2.00;;;;;;;;5078501;28;45245;-76
2022/07/10 14:36:16;;;;;;;;;3.00;1.00;;;;;;;;5078160;28;45383;-71
2022/07/10 14:38:41;;;;;;;;;0.33;0.33;;;;;;;;5078029;28;45423;-70
2022/07/10 14:41:06;;;;;;;;;1.00;1.00;;;;;;;;5078239;28;45298;-71
2022/07/10 14:43:35;;;;;;;;;3.00;2.00;;;;;;;;5078252;28;45347;-71
2022/07/10 14:46:03;;;;;;;;;2.00;2.00;;;;;;;;5078120;28;45474;-72
2022/07/10 14:48:29;;;;;;;;;2.00;1.00;;;;;;;;5077804;27;45442;-70